Time;durP1;ratioP1;P1;durP2;ratioP2;P2;SDS_P1;SDS_P2;PMS_P1;PMS_P2;Temp;Humidity;BMP_temperature;BMP_pressure;BME280_temperature;BME280_humidity;BME280_pressure;Samples;Min_cycle;Max_cycle;Signal;HPM_P1;HPM_P2
2021/10/25 00:00:05;;;;;;;;;;;;;;;2.26;100.00;101612.78;5094451;28;20352;-71
2021/10/25 00:02:38;;;;;;;;;;;;;;;2.29;100.00;101615.34;5094348;28;20019;-71
2021/10/25 00:05:05;;;;;;;;;;;;;;;2.42;100.00;101612.25;5094352;28;20446;-72
2021/10/25 00:07:31;;;;;;;;;;;;;;;2.44;100.00;101610.41;5093639;28;20027;-72
2021/10/25 00:09:58;;;;;;;;;;;;;;;2.48;100.00;101602.22;5094178;28;19964;-72
2021/10/25 00:12:24;;;;;;;;;;;;;;;2.49;100.00;101603.97;5094113;28;19931;-72
2021/10/25 00:14:53;;;;;;;;;;;;;;;2.45;100.00;101599.63;5094165;28;20032;-72
2021/10/25 00:17:21;;;;;;;;;;;;;;;2.46;100.00;101603.19;5093842;28;19924;-71
2021/10/25 00:19:49;;;;;;;;;;;;;;;2.41;100.00;101606.03;5093811;28;20339;-72
2021/10/25 00:22:16;;;;;;;;;;;;;;;2.39;100.00;101605.19;5093702;28;20023;-70
2021/10/25 00:24:42;;;;;;;;;;;;;;;2.36;100.00;101613.34;5093517;28;20019;-71
2021/10/25 00:27:08;;;;;;;;;;;;;;;2.28;100.00;101602.00;5093645;28;20367;-72
2021/10/25 00:29:34;;;;;;;;;;;;;;;2.25;100.00;101600.28;5093763;28;19928;-72
2021/10/25 00:32:01;;;;;;;;;;;;;;;2.30;100.00;101601.03;5075760;28;20373;-72
2021/10/25 00:34:28;;;;;;;;;;;;;;;2.31;100.00;101597.44;5109581;28;19959;-72
2021/10/25 00:36:55;;;;;;;;;;;;;;;2.38;100.00;101595.44;5093536;28;20033;-72
2021/10/25 00:39:22;;;;;;;;;;;;;;;2.47;100.00;101600.47;5093464;28;19931;-72
2021/10/25 00:41:49;;;;;;;;;;;;;;;2.61;100.00;101600.00;5075444;28;20291;-71
2021/10/25 00:44:16;;;;;;;;;;;;;;;2.71;100.00;101592.50;5075290;28;19932;-72
2021/10/25 00:46:43;;;;;;;;;;;;;;;2.75;100.00;101588.78;5075031;28;20010;-72
2021/10/25 00:49:09;;;;;;;;;;;;;;;2.78;100.00;101582.44;5093030;28;19985;-72
2021/10/25 00:51:37;;;;;;;;;;;;;;;2.82;100.00;101584.13;5109085;28;20039;-72
2021/10/25 00:54:03;;;;;;;;;;;;;;;2.84;100.00;101585.78;5093295;28;19985;-72
2021/10/25 00:56:31;;;;;;;;;;;;;;;2.83;100.00;101586.75;5075061;28;20014;-72
2021/10/25 00:58:57;;;;;;;;;;;;;;;2.78;100.00;101577.97;5074810;28;19931;-72
2021/10/25 01:01:24;;;;;;;;;;;;;;;2.75;100.00;101579.88;5075255;28;20467;-72
2021/10/25 01:03:50;;;;;;;;;;;;;;;2.73;100.00;101573.72;5075116;28;19931;-72
2021/10/25 01:06:17;;;;;;;;;;;;;;;2.67;100.00;101577.47;5108673;28;20027;-72
2021/10/25 01:08:45;;;;;;;;;;;;;;;2.72;100.00;101572.81;5108972;28;19928;-72
2021/10/25 01:11:12;;;;;;;;;;;;;;;2.70;100.00;101572.00;5092970;28;19928;-72
2021/10/25 01:13:38;;;;;;;;;;;;;;;2.70;100.00;101573.81;5074784;28;19932;-72
2021/10/25 01:16:05;;;;;;;;;;;;;;;2.67;100.00;101567.63;5092324;28;19924;-72
2021/10/25 01:18:31;;;;;;;;;;;;;;;2.65;100.00;101568.59;5092749;28;20023;-72
2021/10/25 01:20:59;;;;;;;;;;;;;;;2.60;100.00;101566.06;5074765;28;20020;-72
2021/10/25 01:23:26;;;;;;;;;;;;;;;2.55;100.00;101560.00;5092603;28;19931;-72
2021/10/25 01:25:55;;;;;;;;;;;;;;;2.53;100.00;101567.22;5074466;28;19924;-72
2021/10/25 01:28:21;;;;;;;;;;;;;;;2.48;100.00;101553.09;5089580;28;19924;-72
2021/10/25 01:30:50;;;;;;;;;;;;;;;2.48;100.00;101553.09;5074615;28;19924;-72
2021/10/25 01:33:16;;;;;;;;;;;;;;;2.44;100.00;101552.31;5108057;28;19960;-72
2021/10/25 01:35:44;;;;;;;;;;;;;;;2.38;100.00;101547.19;5074344;28;19924;-72
2021/10/25 01:38:13;;;;;;;;;;;;;;;2.24;100.00;101550.31;5074307;28;20303;-72
2021/10/25 01:40:40;;;;;;;;;;;;;;;2.18;100.00;101546.03;5092367;28;20333;-72
2021/10/25 01:43:06;;;;;;;;;;;;;;;2.13;100.00;101553.34;5074289;28;19928;-72
2021/10/25 01:45:33;;;;;;;;;;;;;;;2.10;100.00;101548.09;5092165;28;20337;-72
2021/10/25 01:47:59;;;;;;;;;;;;;;;2.10;100.00;101552.56;5074120;28;20268;-72
2021/10/25 01:50:27;;;;;;;;;;;;;;;2.15;100.00;101555.97;5074010;28;19924;-72
2021/10/25 01:52:55;;;;;;;;;;;;;;;2.10;100.00;101542.75;5074001;28;19981;-72
2021/10/25 01:55:23;;;;;;;;;;;;;;;2.09;100.00;101548.16;5074110;28;19931;-72
2021/10/25 01:57:50;;;;;;;;;;;;;;;2.06;100.00;101548.22;5092032;28;20016;-72
2021/10/25 02:00:17;;;;;;;;;;;;;;;2.02;100.00;101550.16;5073100;28;20370;-72
2021/10/25 02:02:45;;;;;;;;;;;;;;;2.04;100.00;101544.75;5074025;28;20031;-72
2021/10/25 02:05:34;;;;;;;;;;;;;;;2.04;100.00;101545.59;5091809;28;19924;-71
2021/10/25 02:08:01;;;;;;;;;;;;;;;2.06;100.00;101534.84;5073598;28;20019;-71
2021/10/25 02:10:35;;;;;;;;;;;;;;;2.06;100.00;101538.41;5073903;28;20363;-72
2021/10/25 02:13:02;;;;;;;;;;;;;;;2.13;100.00;101529.25;5073865;28;19931;-72
2021/10/25 02:15:29;;;;;;;;;;;;;;;2.09;100.00;101521.38;5073639;28;19931;-71
2021/10/25 02:18:00;;;;;;;;;;;;;;;2.10;100.00;101515.97;5073760;28;19924;-72
2021/10/25 02:20:26;;;;;;;;;;;;;;;2.07;100.00;101515.16;5073539;28;20031;-72
2021/10/25 02:22:52;;;;;;;;;;;;;;;2.16;100.00;101504.16;5073795;28;19959;-72
2021/10/25 02:25:20;;;;;;;;;;;;;;;2.20;100.00;101495.09;5073693;28;19924;-72
2021/10/25 02:27:50;;;;;;;;;;;;;;;2.22;100.00;101503.06;5073220;28;20313;-72
2021/10/25 02:30:16;;;;;;;;;;;;;;;2.25;100.00;101498.50;5073432;28;19924;-72
2021/10/25 02:32:46;;;;;;;;;;;;;;;2.20;100.00;101499.56;5073574;28;19928;-72
2021/10/25 02:35:12;;;;;;;;;;;;;;;2.14;100.00;101498.00;5073642;28;19924;-71
2021/10/25 02:37:43;;;;;;;;;;;;;;;2.14;100.00;101495.31;5073538;28;20015;-71
2021/10/25 02:40:10;;;;;;;;;;;;;;;2.06;100.00;101506.28;5073543;28;20027;-71
2021/10/25 02:42:36;;;;;;;;;;;;;;;2.04;100.00;101508.13;5107282;28;19934;-71
2021/10/25 02:45:05;;;;;;;;;;;;;;;2.02;100.00;101507.31;5073486;28;19931;-72
2021/10/25 02:47:32;;;;;;;;;;;;;;;2.07;100.00;101489.28;5106821;28;19924;-72
2021/10/25 02:50:00;;;;;;;;;;;;;;;2.11;100.00;101493.59;5073282;28;19924;-72
2021/10/25 02:52:29;;;;;;;;;;;;;;;2.06;100.00;101487.53;5073335;28;19978;-72
2021/10/25 02:54:56;;;;;;;;;;;;;;;2.04;100.00;101484.00;5073427;28;19955;-72
2021/10/25 02:57:23;;;;;;;;;;;;;;;1.98;100.00;101494.94;5073074;28;19924;-72
2021/10/25 02:59:52;;;;;;;;;;;;;;;1.90;100.00;101496.97;5073281;28;19924;-72
2021/10/25 03:02:20;;;;;;;;;;;;;;;1.83;100.00;101497.19;5073323;28;19928;-72
2021/10/25 03:04:47;;;;;;;;;;;;;;;1.83;100.00;101497.19;5073342;28;19924;-71
2021/10/25 03:07:13;;;;;;;;;;;;;;;1.82;100.00;101490.09;5072809;28;19931;-71
2021/10/25 03:09:44;;;;;;;;;;;;;;;1.82;100.00;101489.22;5073311;28;19955;-71
2021/10/25 03:12:10;;;;;;;;;;;;;;;1.85;100.00;101483.75;5076851;28;19924;-72
2021/10/25 03:14:39;;;;;;;;;;;;;;;1.83;100.00;101486.47;5077284;28;19924;-71
2021/10/25 03:17:07;;;;;;;;;;;;;;;1.84;100.00;101479.31;5076917;28;19924;-71
2021/10/25 03:19:44;;;;;;;;;;;;;;;1.84;100.00;101482.88;5076977;28;19924;-71
2021/10/25 03:22:12;;;;;;;;;;;;;;;1.83;100.00;101475.78;5073839;28;19931;-71
2021/10/25 03:24:39;;;;;;;;;;;;;;;1.82;100.00;101468.66;5076712;28;19931;-71
2021/10/25 03:27:06;;;;;;;;;;;;;;;1.87;100.00;101472.97;5076948;28;19940;-71
2021/10/25 03:29:32;;;;;;;;;;;;;;;1.80;100.00;101475.88;5095064;28;19931;-71
2021/10/25 03:32:00;;;;;;;;;;;;;;;1.75;100.00;101474.25;5076888;28;20271;-71
2021/10/25 03:34:26;;;;;;;;;;;;;;;1.65;100.00;101482.59;5076735;28;19931;-71
2021/10/25 03:36:54;;;;;;;;;;;;;;;1.59;100.00;101481.91;5076664;28;19924;-71
2021/10/25 03:39:24;;;;;;;;;;;;;;;1.55;100.00;101474.91;5076356;28;20375;-71
2021/10/25 03:41:52;;;;;;;;;;;;;;;1.53;100.00;101472.28;5076709;28;19977;-71
2021/10/25 03:44:22;;;;;;;;;;;;;;;1.56;100.00;101474.84;5076630;28;19928;-71
2021/10/25 03:46:52;;;;;;;;;;;;;;;1.52;100.00;101478.53;5076380;28;19924;-71
2021/10/25 03:49:29;;;;;;;;;;;;;;;1.44;100.00;101477.91;5076558;28;20380;-71
2021/10/25 03:52:25;;;;;;;;;;;;;;;1.43;100.00;101486.84;5094592;28;19924;-71
2021/10/25 03:54:58;;;;;;;;;;;;;;;1.38;100.00;101470.06;5076595;28;20337;-71
2021/10/25 03:57:48;;;;;;;;;;;;;;;1.34;100.00;101471.97;5094061;28;19924;-71
2021/10/25 04:00:35;;;;;;;;;;;;;;;1.39;100.00;101472.72;5076345;28;19924;-71
2021/10/25 04:26:03;;;;;;;;;;;;;;;1.34;100.00;101458.59;5057169;28;20179;-71
2021/10/25 04:28:31;;;;;;;;;;;;;;;1.28;100.00;101466.81;5097825;28;19950;-70
2021/10/25 04:31:00;;;;;;;;;;;;;;;1.20;100.00;101467.03;5075191;28;20307;-70
2021/10/25 04:33:33;;;;;;;;;;;;;;;1.19;100.00;101467.09;5075654;28;19936;-71
2021/10/25 04:36:05;;;;;;;;;;;;;;;1.12;100.00;101464.63;5074696;28;19930;-71
2021/10/25 04:38:45;;;;;;;;;;;;;;;1.09;100.00;101462.00;5109026;28;19978;-71
2021/10/25 04:41:13;;;;;;;;;;;;;;;1.04;100.00;101455.06;5075331;28;20194;-71
2021/10/25 04:43:40;;;;;;;;;;;;;;;0.96;100.00;101450.81;5075118;28;19968;-71
2021/10/25 04:46:08;;;;;;;;;;;;;;;0.92;100.00;101451.84;5074744;28;19924;-71
2021/10/25 04:48:35;;;;;;;;;;;;;;;0.92;100.00;101441.16;5075211;28;20394;-71
2021/10/25 04:51:08;;;;;;;;;;;;;;;0.99;100.00;101440.03;5075117;28;19924;-71
2021/10/25 04:53:53;;;;;;;;;;;;;;;1.04;100.00;101439.00;5093097;28;19935;-71
2021/10/25 04:56:25;;;;;;;;;;;;;;;1.00;100.00;101436.44;5074442;28;19928;-71
2021/10/25 04:58:51;;;;;;;;;;;;;;;0.98;100.00;101438.28;5074401;28;19928;-71
2021/10/25 05:01:18;;;;;;;;;;;;;;;0.92;100.00;101433.13;5108500;28;20007;-71
2021/10/25 05:03:44;;;;;;;;;;;;;;;0.86;100.00;101433.28;5108593;28;19947;-70
2021/10/25 05:06:17;;;;;;;;;;;;;;;0.80;100.00;101426.34;5074167;28;19932;-70
2021/10/25 05:08:44;;;;;;;;;;;;;;;0.80;100.00;101418.31;5055749;28;20399;-70
2021/10/25 05:11:11;;;;;;;;;;;;;;;0.85;100.00;101422.66;5074445;28;19924;-70
2021/10/25 05:13:38;;;;;;;;;;;;;;;0.88;100.00;101420.75;5074668;28;19928;-70
2021/10/25 05:16:05;;;;;;;;;;;;;;;0.93;100.00;101417.94;5074240;28;19930;-69
2021/10/25 05:18:32;;;;;;;;;;;;;;;0.88;100.00;101425.22;5074820;28;20284;-70
2021/10/25 05:20:58;;;;;;;;;;;;;;;0.87;100.00;101429.72;5073479;28;19924;-70
2021/10/25 05:23:27;;;;;;;;;;;;;;;0.90;100.00;101428.75;5056834;28;20448;-70
2021/10/25 05:25:53;;;;;;;;;;;;;;;0.91;100.00;101430.47;5115119;27;20379;-70
2021/10/25 05:28:20;;;;;;;;;;;;;;;0.87;100.00;101435.06;5089181;28;20011;-70
2021/10/25 05:30:48;;;;;;;;;;;;;;;0.85;100.00;101428.88;5073993;28;19924;-73
2021/10/25 05:33:24;;;;;;;;;;;;;;;0.87;100.00;101442.19;5085053;28;19924;-71
2021/10/25 05:35:51;;;;;;;;;;;;;;;0.76;100.00;101430.03;5090729;28;19924;-71
2021/10/25 05:38:17;;;;;;;;;;;;;;;0.69;100.00;101433.78;5090739;28;19963;-71
2021/10/25 05:40:44;;;;;;;;;;;;;;;0.65;100.00;101434.78;5071921;28;19955;-70
2021/10/25 05:43:12;;;;;;;;;;;;;;;0.54;100.00;101431.56;5072048;28;19924;-70
2021/10/25 05:45:39;;;;;;;;;;;;;;;0.49;100.00;101432.56;5073484;28;19924;-71
2021/10/25 05:48:06;;;;;;;;;;;;;;;0.49;100.00;101429.91;5073679;28;19924;-70
2021/10/25 05:50:33;;;;;;;;;;;;;;;0.49;100.00;101429.00;5067689;28;20362;-70
2021/10/25 05:53:00;;;;;;;;;;;;;;;0.46;100.00;101435.31;5071471;28;19932;-70
2021/10/25 05:55:27;;;;;;;;;;;;;;;0.43;100.00;101426.53;5106790;28;19932;-70
2021/10/25 05:57:56;;;;;;;;;;;;;;;0.39;100.00;101432.84;5073487;28;19931;-70
2021/10/25 06:00:26;;;;;;;;;;;;;;;0.42;100.00;101428.28;5073551;28;20027;-71
2021/10/25 06:02:54;;;;;;;;;;;;;;;0.44;100.00;101429.16;5077580;28;19924;-71
2021/10/25 06:05:25;;;;;;;;;;;;;;;0.53;100.00;101428.00;5090459;28;19928;-71
2021/10/25 06:07:54;;;;;;;;;;;;;;;0.60;100.00;101426.03;5060313;28;20034;-71
2021/10/25 06:10:25;;;;;;;;;;;;;;;0.62;100.00;101424.19;5073158;28;19928;-71
2021/10/25 06:12:52;;;;;;;;;;;;;;;0.64;100.00;101417.00;5077476;28;19924;-71
2021/10/25 06:15:37;;;;;;;;;;;;;;;0.72;100.00;101419.44;5070323;28;20020;-71
2021/10/25 06:18:08;;;;;;;;;;;;;;;0.83;100.00;101417.34;5055983;28;19963;-71
2021/10/25 06:20:38;;;;;;;;;;;;;;;0.98;100.00;101432.91;5072930;28;19967;-71
2021/10/25 06:23:07;;;;;;;;;;;;;;;1.07;100.00;101421.09;5073513;28;19931;-71
2021/10/25 06:25:37;;;;;;;;;;;;;;;1.20;100.00;101421.56;5073386;28;19932;-72
2021/10/25 06:28:14;;;;;;;;;;;;;;;1.30;100.00;101427.53;5072941;28;20379;-72
2021/10/25 06:30:55;;;;;;;;;;;;;;;1.40;100.00;101423.59;5067316;28;20451;-71
2021/10/25 06:33:23;;;;;;;;;;;;;;;1.49;100.00;101417.97;5092741;28;20027;-72
2021/10/25 06:36:26;;;;;;;;;;;;;;;1.63;100.00;101411.28;5018022;28;19929;-71
2021/10/25 06:39:09;;;;;;;;;;;;;;;1.72;100.00;101419.00;5086099;28;20026;-72
2021/10/25 06:41:38;;;;;;;;;;;;;;;1.87;100.00;101411.41;5072941;28;20340;-71
2021/10/25 06:44:07;;;;;;;;;;;;;;;2.01;100.00;101418.03;5073273;28;19928;-73
2021/10/25 06:46:34;;;;;;;;;;;;;;;2.21;100.00;101410.25;5090153;28;20565;-72
2021/10/25 06:49:01;;;;;;;;;;;;;;;2.40;100.00;101405.97;5073235;28;19925;-72
2021/10/25 06:51:31;;;;;;;;;;;;;;;2.57;100.00;101408.03;5072693;28;20019;-71
2021/10/25 06:53:59;;;;;;;;;;;;;;;2.70;100.00;101410.25;5072980;28;19967;-71
2021/10/25 06:56:28;;;;;;;;;;;;;;;2.80;100.00;101409.84;5072742;28;19928;-72
2021/10/25 06:58:54;;;;;;;;;;;;;;;2.88;100.00;101403.34;5072501;28;19974;-71
2021/10/25 07:01:23;;;;;;;;;;;;;;;2.90;100.00;101399.66;5072034;28;20418;-72
2021/10/25 07:03:52;;;;;;;;;;;;;;;2.94;100.00;101416.47;5072597;28;19928;-72
2021/10/25 07:06:22;;;;;;;;;;;;;;;2.90;100.00;101410.38;5055173;28;20287;-71
2021/10/25 07:08:52;;;;;;;;;;;;;;;2.89;100.00;101413.13;5071916;28;19924;-71
2021/10/25 07:11:19;;;;;;;;;;;;;;;2.89;100.00;101418.50;5071399;28;19978;-72
2021/10/25 07:13:48;;;;;;;;;;;;;;;2.91;100.00;101419.28;5072270;28;20021;-72
2021/10/25 07:16:18;;;;;;;;;;;;;;;2.95;100.00;101423.59;5072166;28;20026;-72
2021/10/25 07:19:09;;;;;;;;;;;;;;;2.98;100.00;101424.38;5072426;28;20395;-71
2021/10/25 08:01:27;;;;;;;;;;;;;;;7.79;100.00;101370.63;5075742;28;19934;-73
2021/10/25 08:04:14;;;;;;;;;;;;;;;8.11;100.00;101360.63;5076284;28;19931;-73
2021/10/25 08:06:45;;;;;;;;;;;;;;;8.29;100.00;101365.84;5075078;28;19950;-74
2021/10/25 08:09:22;;;;;;;;;;;;;;;8.78;100.00;101360.13;5075839;28;19928;-74
2021/10/25 08:11:52;;;;;;;;;;;;;;;9.07;100.00;101361.91;5074504;28;20015;-74
2021/10/25 08:14:20;;;;;;;;;;;;;;;9.20;100.00;101358.28;5089500;28;20339;-74
2021/10/25 08:16:49;;;;;;;;;;;;;;;9.43;100.00;101346.91;5089233;28;19931;-74
2021/10/25 08:19:24;;;;;;;;;;;;;;;9.63;100.00;101351.84;5089227;28;19925;-74
2021/10/25 08:21:51;;;;;;;;;;;;;;;9.68;100.00;101343.44;5072382;28;20437;-74
2021/10/25 08:24:18;;;;;;;;;;;;;;;9.42;100.00;101348.78;5076321;28;20506;-74
2021/10/25 08:27:03;;;;;;;;;;;;;;;9.26;100.00;101354.34;5093432;28;19935;-74
2021/10/25 08:29:31;;;;;;;;;;;;;;;9.27;100.00;101353.34;5109314;28;20407;-74
2021/10/25 08:32:09;;;;;;;;;;;;;;;9.07;100.00;101351.06;5075413;28;19977;-74
2021/10/25 08:34:46;;;;;;;;;;;;;;;8.83;100.00;101351.69;5075378;28;20023;-75
2021/10/25 08:40:36;;;;;;;;;;;;;;;9.41;100.00;101340.72;5074755;28;19927;-74
2021/10/25 08:43:04;;;;;;;;;;;;;;;9.58;100.00;101342.31;5066053;28;19924;-74
2021/10/25 08:45:33;;;;;;;;;;;;;;;9.70;100.00;101339.66;5075059;28;20024;-74
2021/10/25 08:48:03;;;;;;;;;;;;;;;9.81;100.00;101328.06;5075105;28;19967;-74
2021/10/25 08:50:32;;;;;;;;;;;;;;;9.97;100.00;101327.03;5075087;28;19947;-75
2021/10/25 08:52:59;;;;;;;;;;;;;;;10.40;100.00;101336.75;5075445;28;19981;-74
2021/10/25 08:55:37;;;;;;;;;;;;;;;10.77;100.00;101334.97;5075030;28;19928;-74
2021/10/25 08:58:05;;;;;;;;;;;;;;;10.55;100.00;101336.53;5092851;28;19928;-74
2021/10/25 09:00:37;;;;;;;;;;;;;;;10.05;100.00;101340.91;5055097;28;19928;-73
2021/10/25 09:03:24;;;;;;;;;;;;;;;9.62;100.00;101343.84;5072574;28;20451;-73
2021/10/25 09:05:59;;;;;;;;;;;;;;;9.67;100.00;101344.41;5088092;28;19967;-73
2021/10/25 09:08:28;;;;;;;;;;;;;;;10.04;100.00;101344.59;5087791;28;19963;-73
2021/10/25 09:10:55;;;;;;;;;;;;;;;10.31;100.00;101344.50;5088271;28;20349;-74
2021/10/25 09:13:23;;;;;;;;;;;;;;;10.70;100.00;101333.66;5070737;28;19928;-74
2021/10/25 09:15:54;;;;;;;;;;;;;;;11.06;100.00;101337.38;5074714;28;19924;-73
2021/10/25 09:18:46;;;;;;;;;;;;;;;10.94;100.00;101333.72;5092204;28;20403;-73
2021/10/25 09:21:16;;;;;;;;;;;;;;;11.01;100.00;101328.69;5074101;28;19928;-73
2021/10/25 09:23:44;;;;;;;;;;;;;;;10.84;100.00;101319.09;5092268;28;19936;-73
2021/10/25 09:26:13;;;;;;;;;;;;;;;11.25;100.00;101317.00;5072992;28;19985;-72
2021/10/25 09:28:44;;;;;;;;;;;;;;;11.63;100.00;101314.09;5074038;28;20023;-71
2021/10/25 09:31:17;;;;;;;;;;;;;;;11.67;100.00;101306.59;5073676;28;20193;-71
2021/10/25 09:33:51;;;;;;;;;;;;;;;11.64;100.00;101304.13;5073774;28;19992;-71
2021/10/25 09:36:22;;;;;;;;;;;;;;;11.61;100.00;101312.50;5073897;28;19931;-72
2021/10/25 09:38:59;;;;;;;;;;;;;;;11.84;100.00;101308.88;5071142;28;20015;-71
2021/10/25 09:49:53;;;;;;;;;;;;;;;11.43;100.00;101310.19;5058624;28;20017;-72
2021/10/25 09:52:27;;;;;;;;;;;;;;;11.63;100.00;101313.25;5087432;28;19924;-73
2021/10/25 09:54:56;;;;;;;;;;;;;;;11.82;100.00;101301.81;5076948;28;20015;-71
2021/10/25 09:57:25;;;;;;;;;;;;;;;11.76;100.00;101305.88;5073452;28;20023;-72
2021/10/25 10:00:21;;;;;;;;;;;;;;;12.01;100.00;101312.16;5088936;28;19963;-73
2021/10/25 10:02:54;;;;;;;;;;;;;;;11.79;100.00;101316.53;5072484;28;20210;-73
2021/10/25 10:05:36;;;;;;;;;;;;;;;11.64;100.00;101298.69;5106809;28;19928;-74
2021/10/25 10:08:04;;;;;;;;;;;;;;;11.83;100.00;101304.41;5107419;28;19969;-73
2021/10/25 10:10:33;;;;;;;;;;;;;;;12.07;100.00;101308.97;5073440;28;19938;-74
2021/10/25 10:13:04;;;;;;;;;;;;;;;12.15;100.00;101302.94;5091668;28;19928;-73
2021/10/25 10:15:38;;;;;;;;;;;;;;;12.02;100.00;101303.03;5073233;28;19924;-73
2021/10/25 10:18:08;;;;;;;;;;;;;;;12.26;100.00;101307.53;5073180;28;20380;-74
2021/10/25 10:21:12;;;;;;;;;;;;;;;12.27;100.00;101301.09;5081524;28;20017;-73
2021/10/25 10:23:42;;;;;;;;;;;;;;;12.34;100.00;101307.78;5086506;28;19928;-73
2021/10/25 10:26:13;;;;;;;;;;;;;;;12.36;100.00;101305.81;5086594;28;19947;-73
2021/10/25 10:28:40;;;;;;;;;;;;;;;12.58;100.00;101295.91;5087023;28;19981;-73
2021/10/25 10:31:09;;;;;;;;;;;;;;;12.55;100.00;101308.78;5059138;28;19924;-73
2021/10/25 10:33:41;;;;;;;;;;;;;;;12.67;100.00;101289.72;5072978;28;19924;-72
2021/10/25 10:36:09;;;;;;;;;;;;;;;12.54;100.00;101304.31;5106673;28;19924;-72
2021/10/25 10:38:45;;;;;;;;;;;;;;;12.61;100.00;101299.25;5073103;28;19936;-72
2021/10/25 10:41:41;;;;;;;;;;;;;;;12.77;100.00;101287.97;5072347;28;20026;-69
2021/10/25 10:44:26;;;;;;;;;;;;;;;12.85;100.00;101299.13;5072588;28;20254;-71
2021/10/25 10:46:55;;;;;;;;;;;;;;;13.06;100.00;101287.44;5073156;28;20410;-71
2021/10/25 10:49:24;;;;;;;;;;;;;;;12.69;100.00;101288.63;5090763;28;20307;-71
2021/10/25 10:52:12;;;;;;;;;;;;;;;12.47;100.00;101294.06;5091464;28;19928;-72
2021/10/25 10:54:40;;;;;;;;;;;;;;;11.92;100.00;101302.84;5091017;28;20015;-71
2021/10/25 10:57:20;;;;;;;;;;;;;;;11.96;100.00;101295.31;5090495;28;19924;-71
2021/10/25 10:59:50;;;;;;;;;;;;;;;11.75;100.00;101298.72;5069566;28;19929;-71
2021/10/25 11:02:18;;;;;;;;;;;;;;;11.43;100.00;101280.28;5070751;28;19925;-71
2021/10/25 11:04:46;;;;;;;;;;;;;;;11.28;100.00;101292.34;5073578;28;20019;-69
2021/10/25 11:07:12;;;;;;;;;;;;;;;11.36;100.00;101289.91;5089093;28;19927;-69
2021/10/25 11:09:40;;;;;;;;;;;;;;;11.44;100.00;101298.34;5090648;28;19964;-68
2021/10/25 11:12:09;;;;;;;;;;;;;;;11.51;100.00;101288.72;5090696;28;19930;-69
2021/10/25 11:14:36;;;;;;;;;;;;;;;11.67;100.00;101293.00;5088747;28;20668;-68
2021/10/25 11:17:13;;;;;;;;;;;;;;;11.64;100.00;101290.53;5090829;28;20385;-68
2021/10/25 11:19:46;;;;;;;;;;;;;;;11.47;100.00;101294.53;5090187;28;20229;-69
2021/10/25 11:22:12;;;;;;;;;;;;;;;11.39;100.00;101295.94;5090781;28;20031;-69
2021/10/25 11:24:38;;;;;;;;;;;;;;;11.25;100.00;101290.72;5090291;28;20027;-69
2021/10/25 11:27:05;;;;;;;;;;;;;;;11.15;100.00;101295.09;5072411;28;19924;-69
2021/10/25 11:29:33;;;;;;;;;;;;;;;11.08;100.00;101304.66;5090351;28;20020;-68
2021/10/25 11:32:00;;;;;;;;;;;;;;;11.04;100.00;101293.19;5089591;28;20337;-68
2021/10/25 11:34:29;;;;;;;;;;;;;;;11.09;100.00;101293.72;5094011;28;19925;-68
2021/10/25 11:37:01;;;;;;;;;;;;;;;11.08;100.00;101296.53;5082800;28;19932;-69
2021/10/25 11:39:30;;;;;;;;;;;;;;;11.21;100.00;101284.63;5093998;28;19924;-69
2021/10/25 11:41:57;;;;;;;;;;;;;;;11.22;100.00;101289.09;5094500;28;20375;-69
2021/10/25 11:44:23;;;;;;;;;;;;;;;11.33;100.00;101291.00;5091114;28;19928;-71
2021/10/25 11:46:50;;;;;;;;;;;;;;;11.40;100.00;101294.13;5094123;28;20468;-72
2021/10/25 11:49:20;;;;;;;;;;;;;;;11.51;100.00;101280.56;5075589;28;19964;-73
2021/10/25 11:51:47;;;;;;;;;;;;;;;11.63;100.00;101276.03;5094350;28;20362;-72
2021/10/25 11:54:16;;;;;;;;;;;;;;;11.76;100.00;101275.97;5094329;28;19924;-72
2021/10/25 11:56:43;;;;;;;;;;;;;;;11.84;100.00;101259.91;5094109;28;19978;-73
2021/10/25 11:59:10;;;;;;;;;;;;;;;11.82;100.00;101256.44;5093593;28;19924;-73
2021/10/25 12:01:37;;;;;;;;;;;;;;;11.79;100.00;101264.84;5075979;28;20008;-74
2021/10/25 12:04:06;;;;;;;;;;;;;;;11.47;100.00;101270.06;5076381;28;19924;-74
2021/10/25 12:06:33;;;;;;;;;;;;;;;11.37;100.00;101270.75;5109472;28;20281;-74
2021/10/25 12:09:00;;;;;;;;;;;;;;;11.41;100.00;101265.97;5087154;28;19924;-73
2021/10/25 12:11:40;;;;;;;;;;;;;;;11.35;100.00;101271.84;5094097;28;20006;-74
2021/10/25 12:14:07;;;;;;;;;;;;;;;11.71;100.00;101250.97;5094134;28;20048;-72
2021/10/25 12:16:33;;;;;;;;;;;;;;;12.04;100.00;101250.22;5093259;28;19971;-72
2021/10/25 12:19:00;;;;;;;;;;;;;;;12.50;100.00;101253.81;5093796;28;19928;-72
2021/10/25 12:21:33;;;;;;;;;;;;;;;12.53;100.00;101255.44;5093178;28;19924;-71
2021/10/25 12:24:01;;;;;;;;;;;;;;;12.69;100.00;101255.94;5093484;28;20011;-71
2021/10/25 12:26:29;;;;;;;;;;;;;;;12.65;100.00;101257.13;5093405;28;20030;-71
2021/10/25 12:28:55;;;;;;;;;;;;;;;12.33;100.00;101257.03;5093559;28;20309;-71
2021/10/25 12:31:22;;;;;;;;;;;;;;;12.15;100.00;101253.94;5093329;28;20020;-72
2021/10/25 12:33:51;;;;;;;;;;;;;;;11.80;100.00;101255.69;5093707;28;20019;-72
2021/10/25 12:36:19;;;;;;;;;;;;;;;11.64;100.00;101247.00;5074262;28;19924;-70
2021/10/25 12:38:47;;;;;;;;;;;;;;;11.51;100.00;101239.78;5093517;28;20235;-74
2021/10/25 12:41:13;;;;;;;;;;;;;;;11.33;100.00;101247.50;5092628;28;20011;-73
2021/10/25 12:43:41;;;;;;;;;;;;;;;11.22;100.00;101250.16;5092265;28;19967;-74
2021/10/25 12:46:10;;;;;;;;;;;;;;;11.22;100.00;101250.16;5074965;28;19963;-74
2021/10/25 12:48:43;;;;;;;;;;;;;;;11.26;100.00;101253.53;5089340;28;19939;-73
2021/10/25 12:51:09;;;;;;;;;;;;;;;11.29;100.00;101250.56;5091969;28;20024;-73
2021/10/25 12:53:35;;;;;;;;;;;;;;;11.30;100.00;101245.00;5092095;28;20260;-73
2021/10/25 12:56:02;;;;;;;;;;;;;;;11.33;100.00;101246.63;5093272;28;20377;-73
2021/10/25 12:58:29;;;;;;;;;;;;;;;11.28;100.00;101244.28;5092767;28;20014;-73
2021/10/25 13:00:56;;;;;;;;;;;;;;;11.54;100.00;101236.84;5092776;28;20478;-73
2021/10/25 13:03:28;;;;;;;;;;;;;;;11.94;100.00;101240.16;5091332;28;20023;-74
2021/10/25 13:06:03;;;;;;;;;;;;;;;12.12;100.00;101238.72;5092603;28;20426;-72
2021/10/25 13:08:29;;;;;;;;;;;;;;;12.41;100.00;101237.38;5092404;28;19924;-72
2021/10/25 13:10:56;;;;;;;;;;;;;;;12.45;100.00;101236.97;5092325;28;20355;-71
2021/10/25 13:13:25;;;;;;;;;;;;;;;12.17;100.00;101224.75;5092493;28;20264;-72
2021/10/25 13:15:52;;;;;;;;;;;;;;;11.96;100.00;101219.16;5091565;28;19935;-72
2021/10/25 13:18:19;;;;;;;;;;;;;;;11.84;100.00;101219.13;5092151;28;19924;-72
2021/10/25 13:20:46;;;;;;;;;;;;;;;11.60;100.00;101215.56;5091429;28;19968;-72
2021/10/25 13:23:14;;;;;;;;;;;;;;;11.48;100.00;101221.00;5092354;28;20366;-72
2021/10/25 13:25:41;;;;;;;;;;;;;;;11.33;100.00;101216.72;5092049;28;19928;-72
2021/10/25 13:28:08;;;;;;;;;;;;;;;11.22;100.00;101213.00;5092288;28;20021;-72
2021/10/25 13:30:35;;;;;;;;;;;;;;;11.12;100.00;101206.53;5091953;28;20058;-71
2021/10/25 13:33:02;;;;;;;;;;;;;;;11.00;100.00;101213.75;5090208;28;19930;-72
2021/10/25 13:35:29;;;;;;;;;;;;;;;10.86;100.00;101203.94;5090421;28;20418;-72
2021/10/25 13:37:56;;;;;;;;;;;;;;;10.92;100.00;101202.59;5091517;28;19971;-72
2021/10/25 13:40:24;;;;;;;;;;;;;;;11.05;100.00;101194.41;5090824;28;20281;-72
2021/10/25 13:42:50;;;;;;;;;;;;;;;11.00;100.00;101199.31;5091569;28;19924;-72
2021/10/25 13:45:17;;;;;;;;;;;;;;;10.96;100.00;101195.97;5091458;28;19934;-73
2021/10/25 13:47:43;;;;;;;;;;;;;;;11.02;100.00;101197.34;5088533;28;19924;-72
2021/10/25 13:50:10;;;;;;;;;;;;;;;10.95;100.00;101204.22;5086617;28;20028;-72
2021/10/25 13:52:37;;;;;;;;;;;;;;;10.91;100.00;101208.16;5086034;28;19928;-72
2021/10/25 13:55:06;;;;;;;;;;;;;;;10.81;100.00;101203.41;5085813;28;19932;-72
2021/10/25 13:57:36;;;;;;;;;;;;;;;10.74;100.00;101190.41;5078860;28;20030;-72
2021/10/25 14:00:04;;;;;;;;;;;;;;;10.70;100.00;101185.22;5080426;28;20023;-72